Αρχική σελίδα
METAR-TAF:

METAR-TAF

Αεροδρόμια :

Κουρασάο, Ολλανδικές Αντίλλες

γεωγραφικό πλάτος: 12-12N, γεωγραφικό μήκος: 068-58W, υψόμετρο: 9 μ

Παρών καιρός

Η αναφορά έγινε 1 ώρα και 2 λεπτά πριν, στις 02:00 UTC
Άνεμος 12 kt από Α
Θερμοκρασία 27°C
Υγρασία 84%
Πίεση 1014 hPa
Ορατότητα 10 χλμ και άνω
Διάσπαρτα νέφη σε ύψος 1800 πόδια

METAR: TNCC 260200Z 10012KT 9999 SCT018 27/24 Q1014 NOSIG

Χρόνος: 23:02 (03:02 UTC)

Πρόγνωση Καιρού

Η αναφορά έγινε 5 ώρες και 2 λεπτά πριν, στις 22:00 UTC
Η πρόγνωση ισχύει από τις 26 στις 00 UTC έως τις 26 στις 24 UTC
Άνεμος 12 kt από Α
Ορατότητα 10 χλμ και άνω
Διάσπαρτα νέφη σε ύψος 1800 πόδια
Προσωρινά
από 26 στις 06 UTC έως τις 26 στις 12 UTC
Αρκετά νέφη σε ύψος 1400 πόδια

TAF: TNCC 252200Z 2600/2624 10012KT 9999 SCT018 TEMPO 2606/2612 BKN014

Μετεωρολογικές αναφορές και προγνώσεις για περισσότερα από 4000 αεροδρόμια (δελτία METAR και TAF).

Οι διαθέσιμοι σταθμοί απεικονίζονται στο χάρτη με κίτρινες και κόκκινες κουκκίδες.

Μετακινήστε το ποντίκι πάνω από τις κουκκίδες για να δείτε το όνομα του σταθμού.

Στη συνέχεια, κάντε κλικ για να δείτε τις μετεωρολογικές αναφορές και τις προγνώσεις καιρού.

Για να αλλάξετε το χάρτη: κάντε κλικ στα πράσινα κουμπιά με τον μαύρο σταυρό για να ζουμάρετε, στο πράσινο κουμπί με την παύλα για να αφαιρέσετε το ζουμ ή στα πράσινα βέλη για να αντιπαραβάλλετε χάρτες.


METAR-TAF: